Terrace Airport
CYXT : rendu visible

Aérodrome :











RETROUVEZ-NOUS SUR...

 
LOGIN :

S'inscrire | Disclaimer

   EN    FR    IT 

 









Légende :    VFR   VFR Marginal   IFR   IFR Intensif   IFR Très Intensif
Visi : 
Plafond : 
>= 8 km
>= 3000ft
5 à 8 km
1000 à 3000 ft
1500m à 5 km
500 à 1000 ft
800 à 1500m
200 à 500 ft
< 800m
< 200 ft
Symboles :   Orages  Brouillard  Fortes neiges  Fortes précipitations  Vent > 20 kt






- Altitude de l'aérodrome : 713 ft
- Code IATA : YXT


CYXT - Terrace

DERNIER METAR :
  • 070018Z 24015G27KT 20SM VCSH BKN037TCU 07/M03 A2984 RMK TCU7 SH W SLP115

METARs EXPIRÉS :
  • 070000Z 23018G28KT 170V270 20SM -SHRA BKN038TCU 07/M01 A2983 RMK TCU7 SLP111
  • 062300Z 17015G23KT 20SM -SHRA BKN038TCU 06/01 A2982 RMK TCU7 SLP107
  • 062200Z 17018G26KT 20SM -SHRA BKN038TCU BKN090 05/01 A2981 RMK TCU6AC1 SLP104

TAF TAF CYXT
Valide du 07 à 01h jusqu'au 07 à 13h UTC


070038Z 0701/0713 22015G25KT P6SM BKN040
TEMPO 0701/0706 P6SM -SHRA BKN040
FM070600 20015G25KT P6SM SCT050
TEMPO 0706/0713 P6SM VCSH BKN050 RMK NXT FCST BY 070700Z



MET'MAP, la Météo Aéronautique d'un coup d'oeil ! - Copyright ORBIFLY Décembre 2007 - Disclaimer

ORBIFLY MET'MAP TEAM :

Programmation & Développement : Alexandra Zaïnal
Sur une idée originale de : Baudouin d'Aumeries
Assistance à la programmation : Marc-Olivier Méhu
Soutien technique & logistique : Manuel Goepfert

Contact : metmap@orbifly.com




SOURCES & CREDITS :

   NOAA       Earth
Advisory